Surface Preassure
0:00 UTC
12:00 UTC (Click for larger versions)
Andrewsfield Outlook

Current time:


  01:30:15pm (GMT)      01:30:15pm (UTC)


Headline: Mainly dry, often sunny. Chilly start, but a warm afternoon.

Today: Mainly dry with sunny spells, although the sunshine may be weak or hazy at times. After a rather chilly start, it will feel warm by the afternoon. Westerly winds will be mainly light. Maximum Temperature 20C.

Tonight: Dry with clear spells, but cloud may increase over the Pennines later. Winds will be light. Becoming chilly with temperatures falling to single figures in places. Minimum Temperature 4C.

Friday: Dry and often sunny through the day with scattered cloud. Feeling warm by the afternoon with mainly light northwest winds. Then dry and often clear overnight. Maximum Temperature 21C.

Outlook for Saturday to Monday: Dry, warm and often sunny on Saturday. Cloud will increase with periods of rain on Sunday, then drier, perhaps brighter later. Showery on Monday, rather cloudy with sunny intervals.

Nearby METAR/TAF

Stansted (EGSS)


Current conditions: VFR

METAR: EGSS 231320Z AUTO 21006KT 170V250 9999 NCD 22/08 Q1015

TAF: TAF EGSS 231058Z 2312/2418 24005KT CAVOK

Southend (EGMC)


Current conditions: VFR

METAR: EGMC 231320Z VRB03KT 9999 FEW040 21/08 Q1015

TAF: TAF AMD EGMC 231241Z 2312/2321 20005KT 9999 FEW045

RAF Wattisham (EGUW)


Current conditions: VFR

METAR: EGUW 231250Z 24009KT CAVOK 21/09 Q1016 BLU NOSIG

TAF: TAF EGUW 231033Z 2312/2321 23005KT 9999 FEW045 BECMG 2316/2318 17005KT